createdAt,value
2023-03-13T00:01:59.360Z,85.90
2023-03-13T00:04:27.697Z,85.80
2023-03-13T00:06:56.052Z,85.90
2023-03-13T00:09:24.509Z,85.80
2023-03-13T00:11:52.837Z,85.90
2023-03-13T00:14:21.025Z,85.80
2023-03-13T00:16:50.862Z,85.80
2023-03-13T00:19:19.210Z,85.80
2023-03-13T00:21:47.489Z,85.90
2023-03-13T00:24:16.462Z,85.90
2023-03-13T00:26:44.712Z,85.80
2023-03-13T00:29:13.310Z,85.80
2023-03-13T00:31:41.721Z,85.90
2023-03-13T00:34:12.092Z,85.90
2023-03-13T00:36:40.403Z,85.80
2023-03-13T00:39:08.627Z,85.90
2023-03-13T00:41:38.404Z,85.80
2023-03-13T00:44:06.810Z,85.90
2023-03-13T00:46:35.246Z,85.90
2023-03-13T00:49:03.948Z,86.00
2023-03-13T00:51:33.761Z,85.90
2023-03-13T00:54:02.333Z,86.70
2023-03-13T00:56:30.944Z,85.80
2023-03-13T00:59:01.447Z,85.80
2023-03-13T01:01:31.587Z,85.80
2023-03-13T01:04:01.480Z,85.80
2023-03-13T01:06:35.937Z,85.90
2023-03-13T01:09:06.136Z,85.80
2023-03-13T01:11:37.462Z,85.80
2023-03-13T01:14:07.915Z,85.90
2023-03-13T01:16:37.440Z,85.80
2023-03-13T01:19:07.537Z,85.90
2023-03-13T01:21:37.875Z,86.00
2023-03-13T01:24:06.750Z,85.90
2023-03-13T01:26:35.281Z,85.90
2023-03-13T01:29:03.529Z,86.00
2023-03-13T01:31:33.840Z,86.00
2023-03-13T01:34:03.860Z,86.00
2023-03-13T01:36:33.256Z,86.00
2023-03-13T01:39:03.308Z,85.90
2023-03-13T01:41:32.186Z,86.80
2023-03-13T01:44:00.496Z,85.90
2023-03-13T01:46:34.514Z,85.90
2023-03-13T01:49:06.776Z,85.90
2023-03-13T01:51:45.132Z,86.70
2023-03-13T01:54:19.694Z,86.00
2023-03-13T01:56:52.429Z,85.90
2023-03-13T01:59:27.639Z,85.90
2023-03-13T02:01:59.651Z,86.00
2023-03-13T02:04:30.599Z,86.70
2023-03-13T02:07:01.802Z,85.90
2023-03-13T02:09:33.490Z,86.00
2023-03-13T02:12:08.406Z,85.80
2023-03-13T02:14:39.472Z,86.00
2023-03-13T02:17:08.615Z,85.90
2023-03-13T02:19:42.837Z,85.90
2023-03-13T02:22:19.928Z,85.90
2023-03-13T02:24:55.758Z,85.90
2023-03-13T02:27:26.035Z,86.00
2023-03-13T02:29:54.976Z,85.90
2023-03-13T02:32:24.080Z,85.90
2023-03-13T02:34:57.045Z,86.00
2023-03-13T02:37:28.232Z,85.90
2023-03-13T02:39:59.518Z,85.90
2023-03-13T02:42:30.380Z,86.00
2023-03-13T02:44:58.989Z,85.90
2023-03-13T02:47:27.302Z,85.90
2023-03-13T02:49:56.309Z,86.00
2023-03-13T02:52:27.640Z,86.00
2023-03-13T02:55:00.828Z,85.90
2023-03-13T02:57:31.751Z,85.90
2023-03-13T03:00:00.149Z,85.90
2023-03-13T03:02:28.971Z,85.90
2023-03-13T03:04:57.236Z,86.00
2023-03-13T03:07:25.570Z,85.90
2023-03-13T03:09:54.404Z,85.90
2023-03-13T03:12:22.799Z,85.90
2023-03-13T03:14:52.588Z,86.00
2023-03-13T03:17:21.932Z,85.80
2023-03-13T03:19:50.194Z,85.80
2023-03-13T03:22:18.526Z,86.00
2023-03-13T03:24:46.818Z,85.90
2023-03-13T03:27:15.165Z,85.80
2023-03-13T03:29:48.946Z,85.80
2023-03-13T03:32:19.050Z,85.80
2023-03-13T03:34:47.346Z,85.80
2023-03-13T03:37:15.535Z,85.90
2023-03-13T03:39:44.431Z,85.90
2023-03-13T03:42:12.768Z,85.90
2023-03-13T03:44:42.470Z,85.80
2023-03-13T03:47:11.439Z,85.90
2023-03-13T03:49:44.926Z,85.90
2023-03-13T03:52:14.678Z,85.90
2023-03-13T03:54:44.719Z,85.80
2023-03-13T03:57:13.982Z,85.90
2023-03-13T03:59:45.049Z,86.60
2023-03-13T04:02:13.426Z,85.90
2023-03-13T04:04:44.964Z,85.80
2023-03-13T04:07:21.436Z,85.70
2023-03-13T04:09:50.676Z,85.80
2023-03-13T04:12:27.888Z,85.80
2023-03-13T04:14:57.208Z,85.90
2023-03-13T04:17:26.091Z,85.80
2023-03-13T04:19:55.750Z,85.70
2023-03-13T04:22:24.169Z,85.90
2023-03-13T04:24:57.733Z,85.80
2023-03-13T04:27:26.051Z,85.90
2023-03-13T04:29:54.346Z,85.90
2023-03-13T04:32:41.620Z,85.70
2023-03-13T04:35:35.459Z,85.80
2023-03-13T04:38:38.907Z,85.90
2023-03-13T04:41:27.369Z,85.80
2023-03-13T04:44:18.345Z,85.90
2023-03-13T04:47:00.248Z,85.80
2023-03-13T04:49:40.469Z,85.80
2023-03-13T04:52:28.306Z,85.80
2023-03-13T04:54:56.474Z,85.80
2023-03-13T04:57:40.133Z,85.90
2023-03-13T05:00:28.619Z,85.90
2023-03-13T05:03:22.120Z,85.90
2023-03-13T05:06:10.971Z,85.90
2023-03-13T05:08:57.271Z,85.90
2023-03-13T05:11:56.514Z,85.80
2023-03-13T05:14:44.570Z,85.90
2023-03-13T05:17:36.011Z,85.90
2023-03-13T05:20:22.586Z,85.90
2023-03-13T05:23:11.581Z,85.90
2023-03-13T05:26:03.562Z,85.90
2023-03-13T05:28:31.725Z,85.90
2023-03-13T05:31:15.595Z,86.00
2023-03-13T05:34:03.356Z,86.80
2023-03-13T05:36:49.963Z,86.00
2023-03-13T05:39:36.767Z,86.00
2023-03-13T05:42:29.451Z,86.80
2023-03-13T05:45:20.832Z,86.00
2023-03-13T05:47:59.928Z,85.90
2023-03-13T05:50:57.183Z,86.00
2023-03-13T05:53:43.962Z,86.00
2023-03-13T05:56:26.496Z,86.00
2023-03-13T05:59:18.054Z,86.00
2023-03-13T06:02:14.727Z,85.90
2023-03-13T06:04:46.730Z,86.00
2023-03-13T06:07:15.395Z,85.90
2023-03-13T06:09:43.824Z,85.90
2023-03-13T06:12:12.896Z,85.90
2023-03-13T06:14:42.665Z,85.90
2023-03-13T06:17:22.858Z,85.90
2023-03-13T06:19:51.106Z,85.90
2023-03-13T06:22:20.003Z,85.90
2023-03-13T06:24:49.649Z,85.90
2023-03-13T06:27:18.234Z,85.90
2023-03-13T06:29:47.888Z,85.90
2023-03-13T06:32:16.107Z,85.80
2023-03-13T06:34:44.488Z,85.80
2023-03-13T06:37:13.247Z,85.70
2023-03-13T06:39:41.517Z,85.70
2023-03-13T06:42:10.057Z,85.70
2023-03-13T06:44:38.346Z,85.60
2023-03-13T06:47:08.543Z,85.70
2023-03-13T06:49:37.478Z,85.70
2023-03-13T06:52:05.993Z,85.60
2023-03-13T06:54:34.220Z,85.60
2023-03-13T06:57:02.486Z,85.60
2023-03-13T06:59:30.894Z,85.60
2023-03-13T07:01:59.222Z,85.60
2023-03-13T07:04:28.945Z,85.60
2023-03-13T07:06:57.267Z,85.50
2023-03-13T07:09:25.555Z,85.50
2023-03-13T07:11:53.772Z,85.50
2023-03-13T07:14:22.169Z,85.40
2023-03-13T07:16:50.481Z,85.50
2023-03-13T07:19:18.817Z,85.50
2023-03-13T07:21:49.644Z,85.50
2023-03-13T07:24:18.064Z,85.40
2023-03-13T07:27:01.575Z,85.50
2023-03-13T07:29:33.044Z,85.50
2023-03-13T07:32:01.377Z,85.40
2023-03-13T07:34:29.833Z,85.40
2023-03-13T07:36:59.493Z,85.40
2023-03-13T07:39:27.720Z,85.40
2023-03-13T07:41:55.924Z,85.30
2023-03-13T07:44:24.204Z,85.30
2023-03-13T07:46:52.441Z,85.20
2023-03-13T07:49:20.670Z,85.20
2023-03-13T07:51:51.081Z,85.20
2023-03-13T07:54:20.895Z,85.20
2023-03-13T07:56:49.194Z,85.10
2023-03-13T07:59:17.453Z,85.10
2023-03-13T08:01:45.750Z,85.10
2023-03-13T08:04:14.878Z,85.10
2023-03-13T08:06:43.303Z,85.00
2023-03-13T08:09:11.859Z,85.10
2023-03-13T08:11:44.456Z,85.90
2023-03-13T08:14:13.041Z,85.00
2023-03-13T08:16:41.427Z,85.00
2023-03-13T08:19:10.861Z,85.00
2023-03-13T08:21:39.453Z,85.00
2023-03-13T08:24:10.728Z,85.10
2023-03-13T08:26:42.325Z,85.10
2023-03-13T08:29:12.865Z,85.10
2023-03-13T08:31:45.695Z,85.10
2023-03-13T08:34:14.599Z,85.10
2023-03-13T08:36:43.169Z,85.00
2023-03-13T08:39:13.870Z,85.00
2023-03-13T08:41:43.624Z,85.00
2023-03-13T08:44:13.844Z,85.00
2023-03-13T08:46:43.920Z,85.00
2023-03-13T08:49:13.517Z,85.00
2023-03-13T08:51:42.248Z,84.90
2023-03-13T08:54:10.643Z,84.90
2023-03-13T08:56:38.967Z,85.00
2023-03-13T08:59:08.758Z,85.00
2023-03-13T09:01:37.740Z,85.00
2023-03-13T09:04:06.841Z,85.00
2023-03-13T09:06:35.780Z,85.00
2023-03-13T09:09:05.552Z,84.90
2023-03-13T09:11:34.052Z,85.00
2023-03-13T09:14:02.285Z,85.00
2023-03-13T09:16:33.596Z,85.00
2023-03-13T09:19:02.142Z,85.00
2023-03-13T09:21:32.228Z,85.80
2023-03-13T09:24:01.041Z,84.90
2023-03-13T09:26:30.168Z,84.90
2023-03-13T09:28:58.861Z,85.00
2023-03-13T09:31:29.277Z,84.90
2023-03-13T09:33:59.311Z,84.90
2023-03-13T09:36:28.613Z,84.90
2023-03-13T09:38:58.504Z,84.90
2023-03-13T09:41:31.300Z,84.80
2023-03-13T09:44:06.506Z,84.70
2023-03-13T09:46:40.067Z,85.50
2023-03-13T09:49:22.208Z,84.60
2023-03-13T09:51:54.603Z,84.60
2023-03-13T09:54:29.640Z,84.60
2023-03-13T09:57:01.001Z,84.70
2023-03-13T09:59:36.900Z,84.80
2023-03-13T10:02:17.705Z,84.70
2023-03-13T10:04:52.896Z,85.00
2023-03-13T10:07:21.969Z,84.70
2023-03-13T10:09:50.298Z,85.00
2023-03-13T10:12:21.672Z,84.90
2023-03-13T10:15:14.857Z,85.20
2023-03-13T10:17:43.202Z,85.30
2023-03-13T10:20:23.222Z,85.30
2023-03-13T10:22:55.623Z,85.50
2023-03-13T10:25:31.309Z,85.50
2023-03-13T10:28:00.269Z,85.50
2023-03-13T10:30:30.428Z,85.50
2023-03-13T10:33:01.206Z,85.60
2023-03-13T10:35:37.226Z,85.60
2023-03-13T10:38:07.729Z,85.60
2023-03-13T10:40:36.884Z,85.60
2023-03-13T10:43:07.729Z,85.80
2023-03-13T10:45:38.356Z,85.70
2023-03-13T10:48:14.476Z,85.80
2023-03-13T10:50:46.893Z,85.70
2023-03-13T10:53:32.780Z,85.70
2023-03-13T10:56:10.124Z,85.80
2023-03-13T10:58:42.857Z,85.80
2023-03-13T11:01:23.468Z,85.90
2023-03-13T11:03:53.515Z,85.80
2023-03-13T11:06:29.267Z,86.00
2023-03-13T11:09:04.740Z,85.80
2023-03-13T11:11:44.197Z,85.70
2023-03-13T11:14:17.368Z,85.70
2023-03-13T11:16:50.526Z,86.00
2023-03-13T11:19:31.114Z,85.90
2023-03-13T11:22:21.455Z,86.00
2023-03-13T11:24:56.849Z,85.90
2023-03-13T11:27:31.613Z,86.20
2023-03-13T11:30:12.715Z,86.10
2023-03-13T11:32:44.155Z,86.10
2023-03-13T11:35:29.409Z,86.00
2023-03-13T11:38:01.489Z,86.20
2023-03-13T11:40:33.375Z,85.90
2023-03-13T11:43:27.572Z,86.90
2023-03-13T11:46:15.383Z,86.30
2023-03-13T11:48:58.996Z,85.70
2023-03-13T11:51:33.332Z,85.70
2023-03-13T11:54:20.274Z,85.80
2023-03-13T11:56:54.297Z,85.80
2023-03-13T11:59:37.730Z,86.30
2023-03-13T12:02:19.265Z,85.90
2023-03-13T12:04:55.064Z,86.00
2023-03-13T12:07:31.155Z,86.10
2023-03-13T12:10:03.333Z,86.30
2023-03-13T12:12:40.519Z,86.50
2023-03-13T12:15:20.586Z,86.50
2023-03-13T12:17:52.832Z,86.40
2023-03-13T12:20:26.061Z,86.10
2023-03-13T12:23:05.181Z,86.50
2023-03-13T12:25:40.880Z,86.40
2023-03-13T12:28:24.178Z,86.70
2023-03-13T12:30:59.394Z,86.50
2023-03-13T12:33:32.183Z,87.20
2023-03-13T12:36:09.178Z,86.30
2023-03-13T12:38:44.541Z,86.50
2023-03-13T12:41:21.187Z,86.50
2023-03-13T12:44:07.312Z,86.40
2023-03-13T12:46:41.761Z,86.40
2023-03-13T12:49:44.344Z,86.40
2023-03-13T12:52:43.109Z,86.60
2023-03-13T12:55:44.275Z,86.30
2023-03-13T12:58:34.672Z,86.10
2023-03-13T13:01:06.930Z,86.10
2023-03-13T13:03:39.192Z,86.10
2023-03-13T13:06:10.232Z,86.40
2023-03-13T13:08:41.487Z,87.30
2023-03-13T13:11:56.380Z,86.40
2023-03-13T13:15:12.307Z,86.40
2023-03-13T13:18:09.029Z,86.30
2023-03-13T13:20:44.336Z,86.20
2023-03-13T13:23:36.971Z,86.20
2023-03-13T13:26:48.552Z,86.20
2023-03-13T13:29:59.598Z,86.30
2023-03-13T13:32:35.094Z,86.10
2023-03-13T13:35:07.463Z,86.30
2023-03-13T13:37:35.861Z,86.10
2023-03-13T13:40:28.372Z,86.20
2023-03-13T13:42:58.350Z,86.20
2023-03-13T13:45:32.055Z,86.00
2023-03-13T13:48:30.349Z,86.00
2023-03-13T13:51:25.385Z,85.90
2023-03-13T13:53:59.872Z,86.00
2023-03-13T13:56:41.100Z,85.90
2023-03-13T13:59:43.828Z,85.80
2023-03-13T14:02:26.577Z,85.80
2023-03-13T14:05:05.409Z,85.80
2023-03-13T14:07:50.023Z,85.80
2023-03-13T14:10:30.133Z,85.80
2023-03-13T14:12:59.296Z,85.70
2023-03-13T14:15:29.570Z,85.70
2023-03-13T14:18:00.902Z,85.70
2023-03-13T14:20:33.779Z,85.80
2023-03-13T14:23:04.620Z,85.80
2023-03-13T14:25:51.053Z,85.70
2023-03-13T14:28:22.055Z,85.60
2023-03-13T14:30:52.514Z,85.70
2023-03-13T14:33:21.009Z,85.70
2023-03-13T14:35:50.961Z,85.80
2023-03-13T14:38:21.505Z,85.70
2023-03-13T14:40:51.440Z,85.80
2023-03-13T14:43:29.320Z,85.90
2023-03-13T14:45:58.267Z,85.80
2023-03-13T14:48:31.919Z,85.90
2023-03-13T14:51:15.903Z,85.90
2023-03-13T14:53:56.505Z,86.00
2023-03-13T14:56:35.742Z,86.00
2023-03-13T14:59:17.481Z,86.20
2023-03-13T15:01:46.602Z,86.20
2023-03-13T15:04:14.987Z,86.20
2023-03-13T15:06:44.780Z,87.00
2023-03-13T15:09:22.252Z,86.20
2023-03-13T15:11:57.012Z,86.20
2023-03-13T15:14:37.950Z,86.30
2023-03-13T15:17:17.500Z,86.30
2023-03-13T15:19:50.224Z,86.20
2023-03-13T15:22:22.948Z,86.30
2023-03-13T15:25:05.371Z,86.20
2023-03-13T15:27:36.571Z,86.20
2023-03-13T15:30:05.823Z,86.30
2023-03-13T15:32:37.053Z,86.30
2023-03-13T15:35:22.683Z,86.30
2023-03-13T15:37:52.440Z,86.30
2023-03-13T15:40:21.165Z,86.30
2023-03-13T15:42:49.534Z,86.30
2023-03-13T15:45:18.024Z,86.30
2023-03-13T15:47:48.079Z,86.40
2023-03-13T15:50:18.970Z,86.40
2023-03-13T15:52:47.545Z,86.40
2023-03-13T15:55:17.367Z,86.20
2023-03-13T15:57:47.552Z,86.30
2023-03-13T16:00:20.168Z,86.30
2023-03-13T16:02:48.779Z,86.20
2023-03-13T16:05:17.605Z,86.30
2023-03-13T16:07:45.915Z,86.30
2023-03-13T16:10:20.182Z,86.40
2023-03-13T16:12:48.501Z,86.30
2023-03-13T16:15:16.927Z,86.40
2023-03-13T16:17:45.212Z,86.50
2023-03-13T16:20:17.744Z,86.30
2023-03-13T16:22:46.041Z,86.30
2023-03-13T16:25:16.697Z,86.40
2023-03-13T16:27:45.389Z,86.40
2023-03-13T16:30:18.973Z,86.50
2023-03-13T16:32:47.665Z,86.40
2023-03-13T16:35:16.086Z,86.50
2023-03-13T16:37:44.489Z,86.50
2023-03-13T16:40:18.076Z,86.50
2023-03-13T16:42:46.370Z,86.50
2023-03-13T16:45:15.531Z,86.50
2023-03-13T16:47:45.004Z,86.50
2023-03-13T16:50:23.775Z,86.60
2023-03-13T16:52:53.405Z,86.60
2023-03-13T16:55:28.186Z,86.70
2023-03-13T16:57:56.860Z,86.70
2023-03-13T17:00:27.036Z,86.70
2023-03-13T17:02:56.513Z,86.70
2023-03-13T17:05:26.414Z,86.70
2023-03-13T17:07:54.906Z,86.70
2023-03-13T17:10:26.842Z,86.70
2023-03-13T17:12:55.304Z,86.80
2023-03-13T17:15:24.746Z,87.60
2023-03-13T17:17:54.392Z,86.80
2023-03-13T17:20:24.839Z,86.80
2023-03-13T17:22:56.209Z,86.90
2023-03-13T17:25:26.306Z,86.90
2023-03-13T17:27:54.758Z,87.10
2023-03-13T17:30:25.790Z,86.90
2023-03-13T17:32:54.273Z,87.00
2023-03-13T17:35:23.035Z,87.00
2023-03-13T17:37:51.636Z,87.00
2023-03-13T17:40:22.005Z,87.00
2023-03-13T17:42:52.359Z,87.00
2023-03-13T17:45:20.878Z,87.10
2023-03-13T17:47:50.329Z,87.10
2023-03-13T17:50:22.433Z,87.10
2023-03-13T17:52:51.454Z,87.10
2023-03-13T17:55:20.632Z,87.10
2023-03-13T17:57:49.551Z,87.10
2023-03-13T18:00:25.369Z,87.20
2023-03-13T18:02:53.694Z,87.10
2023-03-13T18:05:22.185Z,87.10
2023-03-13T18:07:50.644Z,87.20
2023-03-13T18:10:21.844Z,87.10
2023-03-13T18:12:51.387Z,87.20
2023-03-13T18:15:20.428Z,87.20
2023-03-13T18:17:50.749Z,87.20
2023-03-13T18:20:22.260Z,87.20
2023-03-13T18:22:50.658Z,88.00
2023-03-13T18:25:19.679Z,87.20
2023-03-13T18:27:47.893Z,87.20
2023-03-13T18:30:18.440Z,88.00
2023-03-13T18:32:47.286Z,87.20
2023-03-13T18:35:17.680Z,87.20
2023-03-13T18:37:47.589Z,87.20
2023-03-13T18:40:19.008Z,87.20
2023-03-13T18:42:47.492Z,87.20
2023-03-13T18:45:16.737Z,87.20
2023-03-13T18:47:45.089Z,87.20
2023-03-13T18:50:23.575Z,87.20
2023-03-13T18:52:52.342Z,87.20
2023-03-13T18:55:20.993Z,87.20
2023-03-13T18:57:49.560Z,87.20
2023-03-13T19:00:20.339Z,87.20
2023-03-13T19:02:49.570Z,87.20
2023-03-13T19:05:20.056Z,87.20
2023-03-13T19:07:48.538Z,87.20
2023-03-13T19:10:24.076Z,87.30
2023-03-13T19:12:53.035Z,87.20
2023-03-13T19:15:24.371Z,87.20
2023-03-13T19:17:52.874Z,87.20
2023-03-13T19:20:24.549Z,87.30
2023-03-13T19:22:54.517Z,87.30
2023-03-13T19:25:23.576Z,87.30
2023-03-13T19:27:51.797Z,87.30
2023-03-13T19:30:21.722Z,87.30
2023-03-13T19:32:50.380Z,87.40
2023-03-13T19:35:21.764Z,87.30
2023-03-13T19:37:52.013Z,87.30
2023-03-13T19:40:22.374Z,87.30
2023-03-13T19:42:50.654Z,87.30
2023-03-13T19:45:20.561Z,87.30
2023-03-13T19:47:49.498Z,87.30
2023-03-13T19:50:19.966Z,87.30
2023-03-13T19:52:48.367Z,87.30
2023-03-13T19:55:18.129Z,87.30
2023-03-13T19:57:46.469Z,87.40
2023-03-13T20:00:20.652Z,87.40
2023-03-13T20:02:48.960Z,87.40
2023-03-13T20:05:17.440Z,87.40
2023-03-13T20:07:46.690Z,87.50
2023-03-13T20:10:15.501Z,87.50
2023-03-13T20:12:45.212Z,87.50
2023-03-13T20:15:14.042Z,87.50
2023-03-13T20:17:42.322Z,87.50
2023-03-13T20:20:13.613Z,87.50
2023-03-13T20:22:42.101Z,87.50
2023-03-13T20:25:11.339Z,87.50
2023-03-13T20:27:40.156Z,87.50
2023-03-13T20:30:12.366Z,87.40
2023-03-13T20:32:56.688Z,87.50
2023-03-13T20:35:27.053Z,87.40
2023-03-13T20:37:57.483Z,87.50
2023-03-13T20:40:25.787Z,87.50
2023-03-13T20:42:54.136Z,87.40
2023-03-13T20:45:23.822Z,87.50
2023-03-13T20:47:52.196Z,87.50
2023-03-13T20:50:20.641Z,87.40
2023-03-13T20:52:49.072Z,87.50
2023-03-13T20:55:17.769Z,87.50
2023-03-13T20:57:46.077Z,87.50
2023-03-13T21:00:15.163Z,87.40
2023-03-13T21:02:46.690Z,87.50
2023-03-13T21:05:14.937Z,87.50
2023-03-13T21:07:43.544Z,87.60
2023-03-13T21:10:12.904Z,87.50
2023-03-13T21:12:41.456Z,87.50
2023-03-13T21:15:10.795Z,88.00
2023-03-13T21:17:39.632Z,87.40
2023-03-13T21:20:12.389Z,88.30
2023-03-13T21:22:41.852Z,87.40
2023-03-13T21:25:12.197Z,87.40
2023-03-13T21:27:40.439Z,87.40
2023-03-13T21:30:10.496Z,87.40
2023-03-13T21:32:39.400Z,87.50
2023-03-13T21:35:10.280Z,87.50
2023-03-13T21:37:38.836Z,87.50
2023-03-13T21:40:08.879Z,87.50
2023-03-13T21:42:37.685Z,87.50
2023-03-13T21:45:07.464Z,87.50
2023-03-13T21:47:37.168Z,87.50
2023-03-13T21:50:08.111Z,87.60
2023-03-13T21:52:40.869Z,87.40
2023-03-13T21:55:12.608Z,87.50
2023-03-13T21:57:41.095Z,88.30
2023-03-13T22:00:10.665Z,87.50
2023-03-13T22:02:38.968Z,87.50
2023-03-13T22:05:08.467Z,87.50
2023-03-13T22:07:38.208Z,87.50
2023-03-13T22:10:07.325Z,87.50
2023-03-13T22:12:37.309Z,87.50
2023-03-13T22:15:07.038Z,87.50
2023-03-13T22:17:35.469Z,87.50
2023-03-13T22:20:06.475Z,87.60
2023-03-13T22:22:34.814Z,87.70
2023-03-13T22:25:04.733Z,87.70
2023-03-13T22:27:33.116Z,87.70
2023-03-13T22:30:01.341Z,87.70
2023-03-13T22:32:30.279Z,87.70
2023-03-13T22:34:58.637Z,87.70
2023-03-13T22:37:27.353Z,87.70
2023-03-13T22:39:56.172Z,87.60
2023-03-13T22:42:26.144Z,87.60
2023-03-13T22:44:55.643Z,87.60
2023-03-13T22:47:25.771Z,87.60
2023-03-13T22:49:54.865Z,87.60
2023-03-13T22:52:28.925Z,87.60
2023-03-13T22:54:57.343Z,87.60
2023-03-13T22:57:28.988Z,87.60
2023-03-13T22:59:59.132Z,87.70
2023-03-13T23:02:28.355Z,87.70
2023-03-13T23:04:58.473Z,87.70
2023-03-13T23:07:28.383Z,87.70
2023-03-13T23:09:57.629Z,87.70
2023-03-13T23:12:30.704Z,87.70
2023-03-13T23:15:00.034Z,87.70
2023-03-13T23:17:30.688Z,87.70
2023-03-13T23:20:01.093Z,87.70
2023-03-13T23:22:32.798Z,87.70
2023-03-13T23:25:01.084Z,87.70
2023-03-13T23:27:31.835Z,87.70
2023-03-13T23:30:01.718Z,87.80
2023-03-13T23:32:30.235Z,87.70
2023-03-13T23:35:00.764Z,88.50
2023-03-13T23:37:28.954Z,87.70
2023-03-13T23:39:59.272Z,87.70
2023-03-13T23:42:27.812Z,87.70
2023-03-13T23:44:57.494Z,87.60
2023-03-13T23:47:25.729Z,87.60
2023-03-13T23:49:54.053Z,87.60
2023-03-13T23:52:22.464Z,87.60
2023-03-13T23:54:52.462Z,87.60
2023-03-13T23:57:21.203Z,87.60
2023-03-13T23:59:49.584Z,87.60
